Time;durP1;ratioP1;P1;durP2;ratioP2;P2;SDS_P1;SDS_P2;PMS_P1;PMS_P2;Temp;Humidity;BMP_temperature;BMP_pressure;BME280_temperature;BME280_humidity;BME280_pressure;Samples;Min_cycle;Max_cycle;Signal;HPM_P1;HPM_P2
2023/07/28 00:01:29;;;;;;;8.80;3.10;;;;;;;;;;5092025;28;20031;-65
2023/07/28 00:03:54;;;;;;;3.57;2.57;;;;;;;;;;5092500;28;20056;-65
2023/07/28 00:06:20;;;;;;;4.40;2.70;;;;;;;;;;5092278;28;20663;-65
2023/07/28 00:08:45;;;;;;;3.40;2.53;;;;;;;;;;5096415;28;20069;-65
2023/07/28 00:11:13;;;;;;;4.17;2.80;;;;;;;;;;5092029;28;20792;-65
2023/07/28 00:13:39;;;;;;;4.13;2.92;;;;;;;;;;5097622;28;20289;-65
2023/07/28 00:16:05;;;;;;;4.32;2.92;;;;;;;;;;5110683;28;20027;-65
2023/07/28 00:18:30;;;;;;;4.50;3.15;;;;;;;;;;5099097;28;20035;-65
2023/07/28 00:20:55;;;;;;;5.80;2.80;;;;;;;;;;5096439;28;20020;-65
2023/07/28 00:23:20;;;;;;;4.30;3.17;;;;;;;;;;5091159;28;20266;-65
2023/07/28 00:25:46;;;;;;;6.23;2.97;;;;;;;;;;5103528;28;20265;-65
2023/07/28 00:28:11;;;;;;;4.10;3.08;;;;;;;;;;5104202;28;20357;-65
2023/07/28 00:30:36;;;;;;;3.85;3.13;;;;;;;;;;5104210;28;20028;-65
2023/07/28 00:33:01;;;;;;;4.47;3.47;;;;;;;;;;5105146;28;20055;-65
2023/07/28 00:35:27;;;;;;;4.35;3.15;;;;;;;;;;5104127;28;20262;-65
2023/07/28 00:37:52;;;;;;;3.75;2.78;;;;;;;;;;5106003;28;20024;-65
2023/07/28 00:40:17;;;;;;;5.53;3.00;;;;;;;;;;5103386;28;20169;-66
2023/07/28 00:42:45;;;;;;;5.45;3.25;;;;;;;;;;5105720;28;20312;-65
2023/07/28 00:45:11;;;;;;;5.05;3.45;;;;;;;;;;5104136;28;20102;-65
2023/07/28 00:47:36;;;;;;;4.13;2.95;;;;;;;;;;5097071;28;20185;-65
2023/07/28 00:50:02;;;;;;;6.57;4.00;;;;;;;;;;5111088;28;20036;-65
2023/07/28 00:52:27;;;;;;;5.95;3.38;;;;;;;;;;5105518;28;20028;-65
2023/07/28 00:54:52;;;;;;;5.03;3.35;;;;;;;;;;5103922;28;20097;-65
2023/07/28 00:57:18;;;;;;;4.75;3.60;;;;;;;;;;5111079;28;20035;-65
2023/07/28 00:59:44;;;;;;;7.43;3.67;;;;;;;;;;5111183;28;20081;-65
2023/07/28 01:02:09;;;;;;;4.28;3.47;;;;;;;;;;5109011;28;20519;-65
2023/07/28 01:04:35;;;;;;;6.27;2.77;;;;;;;;;;5103670;28;20036;-65
2023/07/28 01:07:00;;;;;;;5.75;3.90;;;;;;;;;;5104291;28;20790;-65
2023/07/28 01:09:34;;;;;;;5.07;3.30;;;;;;;;;;5102351;28;20024;-65
2023/07/28 01:12:01;;;;;;;6.15;3.97;;;;;;;;;;5105307;28;20054;-66
2023/07/28 01:14:26;;;;;;;7.40;4.05;;;;;;;;;;5110952;28;20371;-65
2023/07/28 01:16:52;;;;;;;4.93;3.92;;;;;;;;;;5103621;28;20080;-65
2023/07/28 01:19:18;;;;;;;5.55;4.45;;;;;;;;;;5104302;28;20015;-66
2023/07/28 01:21:45;;;;;;;4.88;3.65;;;;;;;;;;5097969;28;20080;-68
2023/07/28 01:24:13;;;;;;;6.63;4.20;;;;;;;;;;5110908;28;20043;-66
2023/07/28 01:26:39;;;;;;;5.60;3.78;;;;;;;;;;5110839;28;20466;-66
2023/07/28 01:29:05;;;;;;;5.28;4.20;;;;;;;;;;5096726;28;20020;-66
2023/07/28 01:31:31;;;;;;;7.00;3.92;;;;;;;;;;5094643;28;20516;-66
2023/07/28 01:33:56;;;;;;;6.22;4.47;;;;;;;;;;5091816;28;20416;-66
2023/07/28 01:36:21;;;;;;;7.78;4.65;;;;;;;;;;5091473;28;20383;-66
2023/07/28 01:38:46;;;;;;;6.30;4.07;;;;;;;;;;5098856;28;20028;-66
2023/07/28 01:41:12;;;;;;;5.40;3.45;;;;;;;;;;5089838;28;20783;-67
2023/07/28 01:43:37;;;;;;;9.73;4.50;;;;;;;;;;5092837;28;20032;-67
2023/07/28 01:46:02;;;;;;;5.00;4.50;;;;;;;;;;5109275;28;20273;-66
2023/07/28 01:48:27;;;;;;;4.63;3.72;;;;;;;;;;5114326;28;20089;-66
2023/07/28 01:50:53;;;;;;;5.20;3.87;;;;;;;;;;5107308;28;20451;-65
2023/07/28 01:53:18;;;;;;;6.53;3.87;;;;;;;;;;5094971;28;20286;-65
2023/07/28 01:55:43;;;;;;;4.00;3.50;;;;;;;;;;5094271;28;20270;-66
2023/07/28 01:58:09;;;;;;;4.75;3.47;;;;;;;;;;5094772;28;20347;-65
2023/07/28 02:00:34;;;;;;;4.32;3.03;;;;;;;;;;5109769;28;20024;-65
2023/07/28 02:03:01;;;;;;;4.45;3.05;;;;;;;;;;5102024;28;20012;-65
2023/07/28 02:05:27;;;;;;;7.22;3.45;;;;;;;;;;5094742;28;20020;-66
2023/07/28 02:07:52;;;;;;;6.30;3.28;;;;;;;;;;5095415;28;20031;-65
2023/07/28 02:10:17;;;;;;;7.10;3.30;;;;;;;;;;5102824;28;20085;-66
2023/07/28 02:12:43;;;;;;;3.60;2.97;;;;;;;;;;5113559;28;20318;-66
2023/07/28 02:15:08;;;;;;;3.40;2.72;;;;;;;;;;5110948;28;20386;-65
2023/07/28 02:17:33;;;;;;;4.03;2.83;;;;;;;;;;5101387;28;20020;-65
2023/07/28 02:19:58;;;;;;;4.32;2.63;;;;;;;;;;5109810;28;20020;-66
2023/07/28 02:22:24;;;;;;;8.50;2.90;;;;;;;;;;5106146;28;20030;-65
2023/07/28 02:24:49;;;;;;;4.03;2.38;;;;;;;;;;5094451;28;20085;-65
2023/07/28 02:27:14;;;;;;;4.43;2.37;;;;;;;;;;5100863;28;20478;-66
2023/07/28 02:29:39;;;;;;;3.22;2.20;;;;;;;;;;5096543;28;20683;-65
2023/07/28 02:32:05;;;;;;;3.43;2.63;;;;;;;;;;5104812;28;20106;-67
2023/07/28 02:34:30;;;;;;;3.13;2.35;;;;;;;;;;5095204;28;20281;-66
2023/07/28 02:36:55;;;;;;;2.60;2.03;;;;;;;;;;5094326;28;20046;-66
2023/07/28 02:39:21;;;;;;;3.10;2.22;;;;;;;;;;5097071;28;20380;-67
2023/07/28 02:41:46;;;;;;;2.90;1.88;;;;;;;;;;5102411;28;20028;-66
2023/07/28 02:44:11;;;;;;;4.07;2.50;;;;;;;;;;5111028;28;20020;-65
2023/07/28 02:46:37;;;;;;;3.87;2.50;;;;;;;;;;5103449;28;20024;-66
2023/07/28 02:49:03;;;;;;;3.22;2.10;;;;;;;;;;5101377;28;20270;-65
2023/07/28 02:51:29;;;;;;;3.78;2.70;;;;;;;;;;5097459;28;20024;-65
2023/07/28 02:53:54;;;;;;;4.88;2.60;;;;;;;;;;5108004;28;20023;-65
2023/07/28 02:56:20;;;;;;;3.20;2.23;;;;;;;;;;5091868;28;20028;-65
2023/07/28 02:58:45;;;;;;;3.55;2.70;;;;;;;;;;5098687;28;20273;-67
2023/07/28 03:01:11;;;;;;;3.97;2.47;;;;;;;;;;5106183;28;20027;-70
2023/07/28 03:03:36;;;;;;;3.30;2.07;;;;;;;;;;5094676;28;20031;-65
2023/07/28 03:06:01;;;;;;;3.53;2.30;;;;;;;;;;5092814;28;20286;-65
2023/07/28 03:08:26;;;;;;;4.05;2.25;;;;;;;;;;5098133;28;20023;-65
2023/07/28 03:10:56;;;;;;;3.03;1.90;;;;;;;;;;5107082;28;20103;-65
2023/07/28 03:13:24;;;;;;;2.97;1.98;;;;;;;;;;5096611;28;20293;-64
2023/07/28 03:15:49;;;;;;;3.35;1.90;;;;;;;;;;5105572;28;20023;-65
2023/07/28 03:18:14;;;;;;;2.45;1.60;;;;;;;;;;5103591;28;20080;-65
2023/07/28 03:20:39;;;;;;;2.43;1.50;;;;;;;;;;5098661;28;20377;-65
2023/07/28 03:23:05;;;;;;;3.57;1.80;;;;;;;;;;5107625;28;20284;-65
2023/07/28 03:25:33;;;;;;;2.40;1.60;;;;;;;;;;5098907;28;20268;-65
2023/07/28 03:27:58;;;;;;;2.80;1.60;;;;;;;;;;5109417;28;20031;-66
2023/07/28 03:30:23;;;;;;;2.70;1.63;;;;;;;;;;5111931;28;20043;-67
2023/07/28 03:32:49;;;;;;;2.40;1.50;;;;;;;;;;5109368;28;20277;-67
2023/07/28 03:35:14;;;;;;;4.88;2.38;;;;;;;;;;5100174;28;20278;-66
2023/07/28 03:37:39;;;;;;;3.13;2.08;;;;;;;;;;5097802;28;20028;-66
2023/07/28 03:40:05;;;;;;;3.72;2.47;;;;;;;;;;5099339;28;20054;-66
2023/07/28 03:42:30;;;;;;;4.22;2.40;;;;;;;;;;5099969;28;20024;-66
2023/07/28 03:44:55;;;;;;;4.30;2.70;;;;;;;;;;5085556;28;20023;-66
2023/07/28 03:47:20;;;;;;;3.83;2.85;;;;;;;;;;5098251;28;20016;-66
2023/07/28 03:49:46;;;;;;;4.17;3.03;;;;;;;;;;5105514;28;20024;-66
2023/07/28 03:52:11;;;;;;;4.15;3.20;;;;;;;;;;5107836;28;20756;-66
2023/07/28 03:54:36;;;;;;;4.90;2.93;;;;;;;;;;5098952;28;20016;-68
2023/07/28 03:57:02;;;;;;;3.93;2.60;;;;;;;;;;5107812;28;20277;-66
2023/07/28 03:59:27;;;;;;;5.07;2.97;;;;;;;;;;5104961;28;20289;-65
2023/07/28 04:01:52;;;;;;;5.10;3.23;;;;;;;;;;5101064;28;20044;-66
2023/07/28 04:04:17;;;;;;;6.45;3.97;;;;;;;;;;5096815;28;20356;-66
2023/07/28 04:06:44;;;;;;;4.85;3.42;;;;;;;;;;5105958;28;20015;-66
2023/07/28 04:09:09;;;;;;;4.60;3.63;;;;;;;;;;5101017;28;20054;-66
2023/07/28 04:11:35;;;;;;;4.65;3.90;;;;;;;;;;5110667;28;20024;-66
2023/07/28 04:14:00;;;;;;;5.60;3.83;;;;;;;;;;5107749;28;20031;-66
2023/07/28 04:16:25;;;;;;;6.20;3.38;;;;;;;;;;5100397;28;20039;-66
2023/07/28 04:18:51;;;;;;;5.50;3.63;;;;;;;;;;5107501;28;20050;-66
2023/07/28 04:21:16;;;;;;;6.05;4.43;;;;;;;;;;5107324;28;20012;-66
2023/07/28 04:23:41;;;;;;;8.97;4.90;;;;;;;;;;5098236;28;20172;-66
2023/07/28 04:26:06;;;;;;;6.03;4.07;;;;;;;;;;5103581;28;20273;-66
2023/07/28 04:28:32;;;;;;;6.80;4.33;;;;;;;;;;5104552;28;20036;-66
2023/07/28 04:30:57;;;;;;;6.75;4.50;;;;;;;;;;5110758;28;20321;-66
2023/07/28 04:33:22;;;;;;;5.30;4.23;;;;;;;;;;5106918;28;20042;-65
2023/07/28 04:35:47;;;;;;;7.50;4.73;;;;;;;;;;5109069;28;20744;-66
2023/07/28 04:38:12;;;;;;;8.23;5.20;;;;;;;;;;5104372;28;20305;-66
2023/07/28 04:40:38;;;;;;;9.00;5.53;;;;;;;;;;5097548;28;20283;-66
2023/07/28 04:43:03;;;;;;;9.37;5.83;;;;;;;;;;5103833;28;20393;-66
2023/07/28 04:45:28;;;;;;;10.40;7.23;;;;;;;;;;5103197;28;20304;-66
2023/07/28 04:47:53;;;;;;;13.13;7.45;;;;;;;;;;5110548;28;20277;-65
2023/07/28 04:50:19;;;;;;;13.23;7.20;;;;;;;;;;5101534;28;20024;-66
2023/07/28 04:52:44;;;;;;;11.57;7.83;;;;;;;;;;5103874;28;20289;-66
2023/07/28 04:55:09;;;;;;;14.13;9.30;;;;;;;;;;5091409;28;20755;-66
2023/07/28 04:57:34;;;;;;;14.52;9.35;;;;;;;;;;5103346;28;20031;-65
2023/07/28 05:00:00;;;;;;;12.20;8.47;;;;;;;;;;5093854;28;20478;-66
2023/07/28 05:02:25;;;;;;;10.90;9.23;;;;;;;;;;5097897;28;20643;-65
2023/07/28 05:04:50;;;;;;;13.47;9.20;;;;;;;;;;5103598;28;20269;-65
2023/07/28 05:07:15;;;;;;;20.47;9.97;;;;;;;;;;5110437;28;20344;-65
2023/07/28 05:09:41;;;;;;;16.37;10.83;;;;;;;;;;5106415;28;20290;-66
2023/07/28 05:12:06;;;;;;;16.50;10.85;;;;;;;;;;5107882;28;20293;-66
2023/07/28 05:14:31;;;;;;;15.27;10.88;;;;;;;;;;5101439;28;20032;-66
2023/07/28 05:16:56;;;;;;;18.53;11.27;;;;;;;;;;5101130;28;20054;-66
2023/07/28 05:19:22;;;;;;;23.85;11.20;;;;;;;;;;5102506;28;20381;-66
2023/07/28 05:21:47;;;;;;;13.52;10.77;;;;;;;;;;5094965;28;20028;-65
2023/07/28 05:24:12;;;;;;;14.83;10.37;;;;;;;;;;5110612;28;20019;-66
2023/07/28 05:26:38;;;;;;;11.70;9.27;;;;;;;;;;5106702;28;20324;-66
2023/07/28 05:29:03;;;;;;;13.88;9.82;;;;;;;;;;5109058;28;20432;-67
2023/07/28 05:31:28;;;;;;;13.37;9.20;;;;;;;;;;5101740;28;20051;-66
2023/07/28 05:33:54;;;;;;;17.40;11.50;;;;;;;;;;5107166;28;20273;-66
2023/07/28 05:36:19;;;;;;;14.98;9.98;;;;;;;;;;5108337;28;20023;-66
2023/07/28 05:38:44;;;;;;;12.32;9.35;;;;;;;;;;5112737;28;20453;-66
2023/07/28 05:41:09;;;;;;;15.05;8.55;;;;;;;;;;5109796;28;20072;-65
2023/07/28 05:43:35;;;;;;;12.50;8.53;;;;;;;;;;5109978;28;20023;-65
2023/07/28 05:46:00;;;;;;;12.45;9.32;;;;;;;;;;5106175;28;20338;-65
2023/07/28 05:48:26;;;;;;;12.15;9.38;;;;;;;;;;5113275;28;20028;-65
2023/07/28 05:50:53;;;;;;;12.38;9.10;;;;;;;;;;5110241;28;20024;-65
2023/07/28 05:53:18;;;;;;;11.73;8.40;;;;;;;;;;5104633;28;20023;-65
2023/07/28 05:55:43;;;;;;;14.57;9.18;;;;;;;;;;5100963;28;20024;-65
2023/07/28 05:58:08;;;;;;;11.63;7.87;;;;;;;;;;5093633;28;20378;-65
2023/07/28 06:00:34;;;;;;;10.60;7.57;;;;;;;;;;5092643;28;20269;-65
2023/07/28 06:02:59;;;;;;;9.93;7.80;;;;;;;;;;5093142;28;20276;-65
2023/07/28 06:05:24;;;;;;;9.80;7.30;;;;;;;;;;5101082;28;20277;-65
2023/07/28 06:07:49;;;;;;;10.32;7.82;;;;;;;;;;5105911;28;20280;-65
2023/07/28 06:10:15;;;;;;;10.75;7.18;;;;;;;;;;5110819;28;20035;-65
2023/07/28 06:12:40;;;;;;;8.88;7.20;;;;;;;;;;5110117;28;20530;-66
2023/07/28 06:15:06;;;;;;;10.53;8.23;;;;;;;;;;5113856;28;20032;-65
2023/07/28 06:17:31;;;;;;;10.93;7.30;;;;;;;;;;5110308;28;20301;-65
2023/07/28 06:19:56;;;;;;;7.73;6.83;;;;;;;;;;5111610;28;20102;-65
2023/07/28 06:22:22;;;;;;;10.35;6.18;;;;;;;;;;5111553;28;20270;-65
2023/07/28 06:24:48;;;;;;;8.60;5.87;;;;;;;;;;5111535;28;20052;-66
2023/07/28 06:27:13;;;;;;;7.47;5.90;;;;;;;;;;5109166;28;20273;-65
2023/07/28 06:29:38;;;;;;;7.10;5.95;;;;;;;;;;5111432;28;20042;-65
2023/07/28 06:32:04;;;;;;;9.43;6.67;;;;;;;;;;5106887;28;20031;-65
2023/07/28 06:34:29;;;;;;;6.65;5.78;;;;;;;;;;5103667;28;20266;-65
2023/07/28 06:36:54;;;;;;;6.93;6.17;;;;;;;;;;5097410;28;20020;-65
2023/07/28 06:39:20;;;;;;;7.37;6.13;;;;;;;;;;5110976;28;20345;-66
2023/07/28 06:41:45;;;;;;;6.33;5.10;;;;;;;;;;5096724;28;20269;-65
2023/07/28 06:44:10;;;;;;;8.60;6.28;;;;;;;;;;5113121;28;20280;-65
2023/07/28 06:46:35;;;;;;;7.20;5.10;;;;;;;;;;5100952;28;20395;-65
2023/07/28 06:49:01;;;;;;;7.13;5.97;;;;;;;;;;5100409;28;20270;-65
2023/07/28 06:51:26;;;;;;;9.18;5.57;;;;;;;;;;5100060;28;20031;-65
2023/07/28 06:53:52;;;;;;;9.80;5.47;;;;;;;;;;5110586;28;20024;-65
2023/07/28 06:56:17;;;;;;;8.05;5.30;;;;;;;;;;5101766;28;20417;-65
2023/07/28 06:58:42;;;;;;;8.45;5.05;;;;;;;;;;5103982;28;20019;-65
2023/07/28 07:01:10;;;;;;;5.93;5.03;;;;;;;;;;5100360;28;20103;-65
2023/07/28 07:03:38;;;;;;;9.57;4.93;;;;;;;;;;5112064;28;20342;-65
2023/07/28 07:06:03;;;;;;;7.15;5.10;;;;;;;;;;5098763;28;20128;-64
2023/07/28 07:08:29;;;;;;;8.15;5.03;;;;;;;;;;5112394;28;20086;-66
2023/07/28 07:10:55;;;;;;;7.13;5.30;;;;;;;;;;5092221;28;20057;-66
2023/07/28 07:13:20;;;;;;;6.32;4.57;;;;;;;;;;5104888;28;20273;-65
2023/07/28 07:15:45;;;;;;;5.07;4.13;;;;;;;;;;5105976;28;20032;-65
2023/07/28 07:18:20;;;;;;;5.10;4.43;;;;;;;;;;5091827;28;20092;-65
2023/07/28 07:20:45;;;;;;;5.22;4.15;;;;;;;;;;5086685;28;20035;-65
2023/07/28 07:23:10;;;;;;;4.80;3.43;;;;;;;;;;5105783;28;20027;-65
2023/07/28 07:25:35;;;;;;;6.97;4.13;;;;;;;;;;5082263;28;20284;-65
2023/07/28 07:28:01;;;;;;;7.07;3.97;;;;;;;;;;5109048;28;20270;-65
2023/07/28 07:30:26;;;;;;;4.03;3.20;;;;;;;;;;5095295;28;20384;-65
2023/07/28 07:32:51;;;;;;;5.17;3.40;;;;;;;;;;5091998;28;20277;-65
2023/07/28 07:35:16;;;;;;;6.27;4.03;;;;;;;;;;5094358;28;20272;-66
2023/07/28 07:37:41;;;;;;;4.05;3.45;;;;;;;;;;5093985;28;20274;-66
2023/07/28 07:40:07;;;;;;;4.70;4.20;;;;;;;;;;5095017;28;20492;-66
2023/07/28 07:42:48;;;;;;;5.97;3.78;;;;;;;;;;5093126;28;20089;-65
2023/07/28 07:45:14;;;;;;;8.43;4.22;;;;;;;;;;5093412;28;20016;-65
2023/07/28 07:47:40;;;;;;;5.50;4.72;;;;;;;;;;5095342;28;20070;-65
2023/07/28 07:50:09;;;;;;;5.18;3.90;;;;;;;;;;5094310;28;20031;-65
2023/07/28 07:52:35;;;;;;;5.65;4.05;;;;;;;;;;5093552;28;20537;-66
2023/07/28 07:55:01;;;;;;;4.43;3.42;;;;;;;;;;5093746;28;20363;-66
2023/07/28 07:57:26;;;;;;;4.05;3.65;;;;;;;;;;5064118;28;20055;-66
2023/07/28 07:59:51;;;;;;;4.50;3.67;;;;;;;;;;5086154;28;20479;-65
2023/07/28 08:02:16;;;;;;;3.67;2.70;;;;;;;;;;5091242;28;20046;-66
2023/07/28 08:04:42;;;;;;;4.10;2.80;;;;;;;;;;5111347;28;20354;-65
2023/07/28 08:07:07;;;;;;;3.72;2.00;;;;;;;;;;5104561;28;20301;-64
2023/07/28 08:09:34;;;;;;;2.25;1.67;;;;;;;;;;5090975;28;20035;-64
2023/07/28 08:11:59;;;;;;;4.85;2.08;;;;;;;;;;5091272;28;20024;-64
2023/07/28 08:14:25;;;;;;;2.78;1.80;;;;;;;;;;5099357;28;20027;-65
2023/07/28 08:16:50;;;;;;;2.80;1.60;;;;;;;;;;5106067;28;20026;-65
2023/07/28 08:19:18;;;;;;;2.63;1.65;;;;;;;;;;5102792;28;20317;-65
2023/07/28 08:21:43;;;;;;;2.35;1.50;;;;;;;;;;5101425;28;20011;-66
2023/07/28 08:24:09;;;;;;;2.83;1.45;;;;;;;;;;5101630;28;20023;-67
2023/07/28 08:26:34;;;;;;;3.58;1.65;;;;;;;;;;5102938;28;20109;-66
2023/07/28 08:28:59;;;;;;;3.58;1.00;;;;;;;;;;5102885;28;20535;-65
2023/07/28 08:31:27;;;;;;;3.30;1.48;;;;;;;;;;5104698;28;20487;-65
2023/07/28 08:33:54;;;;;;;2.58;1.48;;;;;;;;;;5109318;28;20019;-65
2023/07/28 08:36:29;;;;;;;2.35;1.42;;;;;;;;;;5104896;28;20069;-66
2023/07/28 08:38:54;;;;;;;2.30;1.33;;;;;;;;;;5098460;28;20019;-67
2023/07/28 08:41:20;;;;;;;2.17;1.17;;;;;;;;;;5103970;28;20016;-68
2023/07/28 08:43:45;;;;;;;2.70;1.23;;;;;;;;;;5104680;28;20028;-67
2023/07/28 08:46:11;;;;;;;3.20;1.80;;;;;;;;;;5087661;28;20382;-65
2023/07/28 08:48:36;;;;;;;3.47;1.60;;;;;;;;;;5105918;28;20055;-66
2023/07/28 08:51:02;;;;;;;2.92;1.55;;;;;;;;;;5110422;28;20067;-67
2023/07/28 08:53:27;;;;;;;2.38;1.30;;;;;;;;;;5104296;28;20028;-67
2023/07/28 08:55:52;;;;;;;2.38;1.45;;;;;;;;;;5105188;28;20074;-67
2023/07/28 08:58:18;;;;;;;2.38;1.00;;;;;;;;;;5109894;28;20032;-67
2023/07/28 09:00:44;;;;;;;2.22;1.10;;;;;;;;;;5108804;28;20035;-66
2023/07/28 09:03:09;;;;;;;2.28;1.33;;;;;;;;;;5109229;28;20019;-67
2023/07/28 09:05:35;;;;;;;2.55;1.50;;;;;;;;;;5112041;28;20095;-68
2023/07/28 09:08:00;;;;;;;1.98;1.00;;;;;;;;;;5101816;28;20112;-67
2023/07/28 09:10:32;;;;;;;2.47;1.05;;;;;;;;;;5113598;28;20035;-65
2023/07/28 09:12:59;;;;;;;1.92;1.05;;;;;;;;;;5103236;28;20020;-64
2023/07/28 09:15:24;;;;;;;2.83;1.00;;;;;;;;;;5107031;28;20028;-64
2023/07/28 09:17:49;;;;;;;2.25;1.15;;;;;;;;;;5094853;28;20036;-68
2023/07/28 09:20:15;;;;;;;2.22;1.20;;;;;;;;;;5096364;28;20371;-65
2023/07/28 09:22:41;;;;;;;2.42;1.20;;;;;;;;;;5106555;28;20106;-66
2023/07/28 09:25:16;;;;;;;2.15;0.93;;;;;;;;;;5100091;28;20028;-66
2023/07/28 09:27:48;;;;;;;3.70;1.27;;;;;;;;;;5103741;28;20084;-66
2023/07/28 09:30:16;;;;;;;2.08;1.40;;;;;;;;;;5102817;28;20583;-67
2023/07/28 09:32:46;;;;;;;3.95;1.42;;;;;;;;;;5103042;28;20024;-68
2023/07/28 09:35:12;;;;;;;5.72;1.45;;;;;;;;;;5107990;28;20102;-67
2023/07/28 09:37:41;;;;;;;3.67;1.58;;;;;;;;;;5106276;28;20032;-67
2023/07/28 09:40:12;;;;;;;2.30;1.40;;;;;;;;;;5113153;28;20034;-67
2023/07/28 09:42:41;;;;;;;5.40;1.52;;;;;;;;;;5105571;28;20039;-66
2023/07/28 09:45:08;;;;;;;3.20;1.70;;;;;;;;;;5111861;28;20098;-65
2023/07/28 09:47:35;;;;;;;1.42;0.82;;;;;;;;;;5102096;28;20031;-65
2023/07/28 09:50:01;;;;;;;2.75;1.25;;;;;;;;;;5101041;28;20028;-65
2023/07/28 09:52:29;;;;;;;2.05;1.00;;;;;;;;;;5106431;28;20035;-66
2023/07/28 09:54:56;;;;;;;1.58;0.73;;;;;;;;;;5093692;28;20103;-66
2023/07/28 09:57:23;;;;;;;0.68;0.40;;;;;;;;;;5102705;28;20687;-64
2023/07/28 09:59:49;;;;;;;1.67;0.70;;;;;;;;;;5109078;28;20026;-64
2023/07/28 10:02:15;;;;;;;1.25;0.55;;;;;;;;;;5109182;28;20068;-66
2023/07/28 10:04:40;;;;;;;1.65;0.60;;;;;;;;;;5105623;28;20024;-68
2023/07/28 10:07:07;;;;;;;1.25;0.70;;;;;;;;;;5098097;28;20515;-64
2023/07/28 10:09:33;;;;;;;1.52;0.80;;;;;;;;;;5105184;28;20107;-64
2023/07/28 10:11:59;;;;;;;2.42;0.85;;;;;;;;;;5081425;28;20397;-66
2023/07/28 10:14:29;;;;;;;1.73;0.93;;;;;;;;;;5111568;28;20019;-66
2023/07/28 10:16:54;;;;;;;1.85;1.08;;;;;;;;;;5110413;28;20031;-65
2023/07/28 10:19:21;;;;;;;2.08;1.00;;;;;;;;;;5101422;28;20047;-63
2023/07/28 10:21:46;;;;;;;4.65;1.10;;;;;;;;;;5108117;28;20036;-63
2023/07/28 10:24:11;;;;;;;2.08;1.33;;;;;;;;;;5104111;28;20458;-62
2023/07/28 10:26:38;;;;;;;2.05;1.10;;;;;;;;;;5111120;28;20030;-65
2023/07/28 10:29:13;;;;;;;2.20;1.08;;;;;;;;;;5104729;28;20024;-65
2023/07/28 10:31:49;;;;;;;1.63;0.90;;;;;;;;;;5110980;28;20107;-67
2023/07/28 10:34:15;;;;;;;2.13;0.80;;;;;;;;;;5107398;28;20016;-66
2023/07/28 10:36:43;;;;;;;2.05;1.00;;;;;;;;;;5108059;28;20028;-67
2023/07/28 10:39:17;;;;;;;1.83;1.00;;;;;;;;;;5107598;28;21246;-66
2023/07/28 10:42:00;;;;;;;2.20;0.88;;;;;;;;;;5098654;28;20028;-66
2023/07/28 10:44:26;;;;;;;1.57;0.77;;;;;;;;;;5099247;28;20493;-66
2023/07/28 10:46:52;;;;;;;1.48;0.80;;;;;;;;;;5099789;28;20038;-66
2023/07/28 10:49:17;;;;;;;2.22;1.00;;;;;;;;;;5105400;28;20519;-66
2023/07/28 10:51:42;;;;;;;1.48;0.80;;;;;;;;;;5082690;28;20031;-67
2023/07/28 10:54:07;;;;;;;1.70;0.90;;;;;;;;;;5101611;28;20057;-66
2023/07/28 10:56:33;;;;;;;2.17;1.15;;;;;;;;;;5098917;28;20066;-67
2023/07/28 10:58:59;;;;;;;3.73;1.20;;;;;;;;;;5099188;28;20020;-66
2023/07/28 11:01:32;;;;;;;2.95;1.60;;;;;;;;;;5092612;28;20278;-67
2023/07/28 11:04:05;;;;;;;4.07;1.60;;;;;;;;;;5105984;28;20482;-67
2023/07/28 11:06:30;;;;;;;1.98;1.13;;;;;;;;;;5103990;28;20028;-66
2023/07/28 11:08:56;;;;;;;3.53;1.20;;;;;;;;;;5095330;28;20118;-66
2023/07/28 11:11:21;;;;;;;2.00;1.27;;;;;;;;;;5106399;28;20346;-66
2023/07/28 11:13:46;;;;;;;1.90;1.08;;;;;;;;;;5108990;28;20752;-66
2023/07/28 11:16:11;;;;;;;3.20;1.70;;;;;;;;;;5100876;28;20027;-66
2023/07/28 11:18:37;;;;;;;2.38;1.48;;;;;;;;;;5108084;28;20482;-66
2023/07/28 11:21:03;;;;;;;3.30;1.70;;;;;;;;;;5101926;28;20039;-67
2023/07/28 11:23:28;;;;;;;2.35;1.40;;;;;;;;;;5099214;28;21490;-67
2023/07/28 11:25:54;;;;;;;2.60;1.33;;;;;;;;;;5095643;28;20024;-67
2023/07/28 11:28:19;;;;;;;2.67;1.50;;;;;;;;;;5105108;28;20027;-66
2023/07/28 11:30:47;;;;;;;3.05;1.73;;;;;;;;;;5102593;28;20043;-66
2023/07/28 11:33:13;;;;;;;1.83;1.08;;;;;;;;;;5102389;28;20032;-66
2023/07/28 11:35:40;;;;;;;3.70;1.42;;;;;;;;;;5110843;28;20027;-67
2023/07/28 11:38:06;;;;;;;3.08;1.65;;;;;;;;;;5109307;28;20059;-67
2023/07/28 11:40:31;;;;;;;2.20;1.30;;;;;;;;;;5110170;28;20466;-67
2023/07/28 11:42:57;;;;;;;2.35;1.48;;;;;;;;;;5107068;28;20040;-67
2023/07/28 11:45:23;;;;;;;3.17;1.95;;;;;;;;;;5110228;28;20043;-67
2023/07/28 11:47:51;;;;;;;2.45;1.73;;;;;;;;;;5097118;28;20028;-67
2023/07/28 11:50:22;;;;;;;2.58;1.77;;;;;;;;;;5098051;28;20033;-67
2023/07/28 11:52:47;;;;;;;2.58;1.65;;;;;;;;;;5106111;28;20421;-67
2023/07/28 11:55:13;;;;;;;5.60;1.97;;;;;;;;;;5101627;28;20024;-67
2023/07/28 11:57:39;;;;;;;2.53;1.40;;;;;;;;;;5092638;28;20269;-68
2023/07/28 12:00:04;;;;;;;1.75;1.08;;;;;;;;;;5101256;28;20478;-67
2023/07/28 12:02:30;;;;;;;3.90;1.50;;;;;;;;;;5097176;28;20019;-66
2023/07/28 12:04:57;;;;;;;3.05;1.98;;;;;;;;;;5101043;28;20044;-65
2023/07/28 12:07:30;;;;;;;2.85;2.25;;;;;;;;;;5103296;28;20024;-65
2023/07/28 12:09:59;;;;;;;2.92;2.00;;;;;;;;;;5099439;28;20031;-65
2023/07/28 12:12:31;;;;;;;2.55;1.80;;;;;;;;;;5091518;28;20032;-68
2023/07/28 12:15:04;;;;;;;2.42;1.70;;;;;;;;;;5091678;28;20040;-67
2023/07/28 12:17:29;;;;;;;3.53;1.83;;;;;;;;;;5105472;28;20031;-67
2023/07/28 12:20:15;;;;;;;2.30;1.15;;;;;;;;;;5106895;28;20392;-67
2023/07/28 12:22:40;;;;;;;2.22;1.45;;;;;;;;;;5107834;28;20055;-66
2023/07/28 12:25:06;;;;;;;2.75;1.40;;;;;;;;;;5106077;28;20084;-67
2023/07/28 12:27:31;;;;;;;2.20;1.40;;;;;;;;;;5107710;28;20061;-67
2023/07/28 12:29:57;;;;;;;2.67;1.30;;;;;;;;;;5105139;28;20448;-67
2023/07/28 12:32:22;;;;;;;2.17;1.30;;;;;;;;;;5106072;28;20023;-67
2023/07/28 12:34:48;;;;;;;2.92;1.52;;;;;;;;;;5108836;28;20035;-66
2023/07/28 12:37:13;;;;;;;2.80;1.58;;;;;;;;;;5107712;28;20027;-67
2023/07/28 12:39:39;;;;;;;2.63;1.67;;;;;;;;;;5109750;28;20070;-66
2023/07/28 12:42:07;;;;;;;1.95;1.00;;;;;;;;;;5107481;28;20012;-67
2023/07/28 12:44:33;;;;;;;1.50;0.80;;;;;;;;;;5098242;28;20441;-66
2023/07/28 12:46:58;;;;;;;1.83;0.90;;;;;;;;;;5110860;28;20020;-66
2023/07/28 12:49:23;;;;;;;1.38;0.80;;;;;;;;;;5099510;28;20031;-67
2023/07/28 12:51:49;;;;;;;1.70;0.90;;;;;;;;;;5097546;28;20068;-67
2023/07/28 12:54:15;;;;;;;1.90;1.02;;;;;;;;;;5097581;28;20020;-66
2023/07/28 12:56:40;;;;;;;4.63;1.30;;;;;;;;;;5096988;28;20019;-67
2023/07/28 12:59:05;;;;;;;1.65;0.90;;;;;;;;;;5106691;28;20031;-67
2023/07/28 13:01:30;;;;;;;2.00;1.10;;;;;;;;;;5103010;28;20655;-67
2023/07/28 13:03:56;;;;;;;2.63;1.20;;;;;;;;;;5097943;28;20324;-66
2023/07/28 13:06:21;;;;;;;2.00;1.20;;;;;;;;;;5103206;28;20353;-67
2023/07/28 13:08:46;;;;;;;1.92;1.00;;;;;;;;;;5099495;28;20023;-66
2023/07/28 13:11:14;;;;;;;1.97;1.20;;;;;;;;;;5098577;28;20490;-66
2023/07/28 13:13:39;;;;;;;2.13;1.25;;;;;;;;;;5098717;28;20352;-66
2023/07/28 13:16:04;;;;;;;2.20;1.30;;;;;;;;;;5103246;28;20099;-67
2023/07/28 13:18:31;;;;;;;2.55;1.50;;;;;;;;;;5092368;28;20277;-67
2023/07/28 13:20:56;;;;;;;2.45;1.40;;;;;;;;;;5091701;28;20028;-66
2023/07/28 13:23:21;;;;;;;1.50;0.80;;;;;;;;;;5092512;28;20031;-65
2023/07/28 13:25:46;;;;;;;2.10;1.05;;;;;;;;;;5109947;28;20405;-66
2023/07/28 13:28:12;;;;;;;1.85;0.93;;;;;;;;;;5105583;28;20030;-67
2023/07/28 13:30:37;;;;;;;2.00;1.00;;;;;;;;;;5092389;28;20106;-67
2023/07/28 13:33:03;;;;;;;2.37;1.30;;;;;;;;;;5107123;28;20023;-67
2023/07/28 13:35:28;;;;;;;2.10;1.27;;;;;;;;;;5107045;28;20675;-67
2023/07/28 13:37:53;;;;;;;2.88;1.70;;;;;;;;;;5106967;28;20474;-67
2023/07/28 13:40:18;;;;;;;3.13;1.57;;;;;;;;;;5105155;28;20028;-67
2023/07/28 13:42:44;;;;;;;3.20;1.77;;;;;;;;;;5110064;28;20308;-67
2023/07/28 13:45:09;;;;;;;2.85;1.70;;;;;;;;;;5101403;28;20028;-66
2023/07/28 13:47:34;;;;;;;3.38;1.42;;;;;;;;;;5110406;28;20482;-68
2023/07/28 13:50:00;;;;;;;3.30;2.17;;;;;;;;;;5103230;28;20046;-68
2023/07/28 13:52:25;;;;;;;7.43;1.60;;;;;;;;;;5109891;28;20289;-68
2023/07/28 13:54:50;;;;;;;2.00;1.00;;;;;;;;;;5098140;28;20023;-68
2023/07/28 13:57:15;;;;;;;2.27;1.40;;;;;;;;;;5094054;28;20286;-67
2023/07/28 13:59:41;;;;;;;2.43;1.30;;;;;;;;;;5108187;28;20768;-67
2023/07/28 14:02:06;;;;;;;2.93;1.40;;;;;;;;;;5103921;28;20422;-66
2023/07/28 14:04:32;;;;;;;3.17;1.83;;;;;;;;;;5105897;28;20281;-66
2023/07/28 14:06:58;;;;;;;3.30;1.80;;;;;;;;;;5113333;28;20043;-67
2023/07/28 14:09:23;;;;;;;2.13;1.42;;;;;;;;;;5100667;28;20024;-65
2023/07/28 14:11:49;;;;;;;3.33;1.90;;;;;;;;;;5105304;28;20041;-64
2023/07/28 14:14:14;;;;;;;2.20;1.60;;;;;;;;;;5105108;28;20081;-67
2023/07/28 14:16:39;;;;;;;2.53;1.70;;;;;;;;;;5113549;28;20265;-65
2023/07/28 14:19:04;;;;;;;2.22;1.52;;;;;;;;;;5098806;28;20266;-65
2023/07/28 14:21:30;;;;;;;2.37;1.53;;;;;;;;;;5095763;28;20026;-66
2023/07/28 14:23:55;;;;;;;2.53;1.17;;;;;;;;;;5099600;28;20783;-67
2023/07/28 14:26:20;;;;;;;2.60;1.40;;;;;;;;;;5106667;28;20760;-67
2023/07/28 14:28:45;;;;;;;4.10;1.43;;;;;;;;;;5100143;28;20106;-68
2023/07/28 14:31:11;;;;;;;2.13;1.27;;;;;;;;;;5106352;28;20320;-68
2023/07/28 14:33:36;;;;;;;3.60;1.50;;;;;;;;;;5099757;28;20682;-68